createdAt,value
2023-02-17T00:03:24.931Z,4.92
2023-02-17T00:08:47.091Z,4.85
2023-02-17T00:14:12.762Z,4.82
2023-02-17T00:19:34.630Z,4.87
2023-02-17T00:24:56.659Z,4.83
2023-02-17T00:30:18.773Z,4.95
2023-02-17T00:35:40.862Z,4.97
2023-02-17T00:41:02.809Z,5.06
2023-02-17T00:46:26.182Z,5.18
2023-02-17T00:51:48.736Z,5.22
2023-02-17T00:57:11.020Z,5.15
2023-02-17T01:02:33.514Z,5.19
2023-02-17T01:07:56.121Z,5.27
2023-02-17T01:13:19.500Z,5.25
2023-02-17T01:18:41.358Z,5.39
2023-02-17T01:24:06.029Z,5.33
2023-02-17T01:29:27.979Z,5.38
2023-02-17T01:34:49.819Z,5.44
2023-02-17T01:40:14.037Z,5.49
2023-02-17T01:45:41.628Z,5.65
2023-02-17T01:51:10.958Z,5.64
2023-02-17T01:56:35.522Z,5.73
2023-02-17T02:02:00.535Z,5.52
2023-02-17T02:07:43.961Z,5.69
2023-02-17T02:13:07.597Z,5.59
2023-02-17T02:18:59.907Z,5.60
2023-02-17T02:24:44.290Z,5.63
2023-02-17T02:30:21.347Z,5.57
2023-02-17T02:35:56.340Z,5.62
2023-02-17T02:41:24.032Z,5.69
2023-02-17T02:46:45.894Z,5.77
2023-02-17T02:52:23.505Z,5.64
2023-02-17T02:58:06.227Z,5.70
2023-02-17T03:04:09.318Z,5.57
2023-02-17T03:09:31.894Z,5.52
2023-02-17T03:15:06.161Z,5.65
2023-02-17T03:20:32.877Z,5.72
2023-02-17T03:25:54.812Z,5.65
2023-02-17T03:31:17.066Z,5.64
2023-02-17T03:36:39.017Z,5.63
2023-02-17T03:42:02.243Z,5.74
2023-02-17T03:47:24.098Z,5.54
2023-02-17T03:52:46.095Z,5.57
2023-02-17T03:58:08.181Z,5.53
2023-02-17T04:03:30.056Z,5.49
2023-02-17T04:08:51.990Z,5.44
2023-02-17T04:14:13.891Z,5.57
2023-02-17T04:19:35.801Z,5.39
2023-02-17T04:24:57.688Z,5.50
2023-02-17T04:30:20.219Z,5.38
2023-02-17T04:35:42.632Z,5.39
2023-02-17T04:41:05.125Z,5.48
2023-02-17T04:46:27.103Z,5.53
2023-02-17T04:51:48.984Z,5.53
2023-02-17T04:57:10.899Z,5.45
2023-02-17T05:02:32.992Z,5.44
2023-02-17T05:07:54.826Z,5.55
2023-02-17T05:13:16.769Z,5.51
2023-02-17T05:18:38.683Z,5.61
2023-02-17T05:24:00.477Z,5.56
2023-02-17T05:29:22.327Z,5.52
2023-02-17T05:34:44.335Z,5.50
2023-02-17T05:40:07.145Z,5.42
2023-02-17T05:45:29.002Z,5.37
2023-02-17T05:50:50.886Z,5.39
2023-02-17T05:56:12.754Z,5.26
2023-02-17T06:01:37.073Z,5.48
2023-02-17T06:06:59.210Z,5.51
2023-02-17T06:12:21.449Z,5.50
2023-02-17T06:17:43.360Z,5.43
2023-02-17T06:23:05.349Z,5.39
2023-02-17T06:28:28.327Z,5.49
2023-02-17T06:33:50.190Z,5.39
2023-02-17T06:39:12.064Z,5.40
2023-02-17T06:44:33.908Z,5.37
2023-02-17T06:49:55.801Z,5.62
2023-02-17T06:55:17.691Z,5.65
2023-02-17T07:00:39.531Z,5.69
2023-02-17T07:06:01.382Z,5.89
2023-02-17T07:11:23.354Z,5.99
2023-02-17T07:16:45.246Z,6.24
2023-02-17T07:22:07.215Z,6.14
2023-02-17T07:27:29.078Z,6.51
2023-02-17T07:32:50.962Z,6.55
2023-02-17T07:38:12.923Z,6.58
2023-02-17T07:43:35.021Z,6.59
2023-02-17T07:48:57.863Z,6.74
2023-02-17T07:54:19.778Z,6.62
2023-02-17T07:59:41.602Z,6.52
2023-02-17T08:05:03.515Z,6.47
2023-02-17T08:10:25.351Z,6.68
2023-02-17T08:15:47.247Z,6.75
2023-02-17T08:21:09.086Z,6.77
2023-02-17T08:26:31.106Z,6.95
2023-02-17T08:31:53.502Z,6.86
2023-02-17T08:37:15.601Z,7.04
2023-02-17T08:42:37.429Z,7.15
2023-02-17T08:47:59.257Z,7.13
2023-02-17T08:53:21.152Z,7.30
2023-02-17T08:58:43.022Z,7.15
2023-02-17T09:04:08.326Z,7.46
2023-02-17T09:09:30.205Z,7.70
2023-02-17T09:14:52.086Z,7.84
2023-02-17T09:20:24.250Z,7.78
2023-02-17T09:25:47.281Z,7.93
2023-02-17T09:31:11.823Z,7.90
2023-02-17T09:36:38.917Z,7.92
2023-02-17T09:42:00.774Z,7.66
2023-02-17T09:47:27.007Z,7.66
2023-02-17T09:53:11.537Z,7.43
2023-02-17T09:58:40.640Z,7.53
2023-02-17T10:04:26.101Z,7.40
2023-02-17T10:09:52.469Z,7.30
2023-02-17T10:15:19.112Z,7.21
2023-02-17T10:20:47.505Z,7.42
2023-02-17T10:26:20.714Z,7.33
2023-02-17T10:31:47.079Z,7.46
2023-02-17T10:37:11.680Z,7.45
2023-02-17T10:42:38.851Z,7.36
2023-02-17T10:48:12.759Z,7.64
2023-02-17T10:53:39.752Z,7.58
2023-02-17T10:59:19.179Z,7.66
2023-02-17T11:04:43.670Z,7.44
2023-02-17T11:10:23.147Z,7.54
2023-02-17T11:15:47.628Z,7.78
2023-02-17T11:21:11.313Z,7.72
2023-02-17T11:26:35.518Z,7.68
2023-02-17T11:31:59.187Z,7.89
2023-02-17T11:37:23.367Z,7.48
2023-02-17T11:42:56.133Z,7.86
2023-02-17T11:48:57.556Z,7.71
2023-02-17T11:54:25.231Z,8.04
2023-02-17T12:00:27.208Z,7.72
2023-02-17T12:06:07.747Z,7.82
2023-02-17T12:11:43.880Z,7.44
2023-02-17T12:17:24.340Z,7.89
2023-02-17T12:23:13.383Z,7.73
2023-02-17T12:28:53.630Z,8.08
2023-02-17T12:34:18.372Z,8.05
2023-02-17T12:39:50.048Z,7.69
2023-02-17T12:45:14.885Z,7.87
2023-02-17T12:50:54.748Z,7.93
2023-02-17T12:56:25.352Z,7.81
2023-02-17T13:01:59.059Z,7.80
2023-02-17T13:07:36.065Z,7.81
2023-02-17T13:13:11.949Z,7.83
2023-02-17T13:18:36.620Z,8.04
2023-02-17T13:24:01.043Z,7.87
2023-02-17T13:29:25.841Z,7.64
2023-02-17T13:35:00.653Z,7.89
2023-02-17T13:40:22.448Z,7.81
2023-02-17T13:46:07.310Z,7.72
2023-02-17T13:51:30.877Z,7.71
2023-02-17T13:56:53.696Z,7.63
2023-02-17T14:02:35.155Z,7.60
2023-02-17T14:08:06.540Z,7.62
2023-02-17T14:13:29.286Z,7.63
2023-02-17T14:19:08.942Z,7.65
2023-02-17T14:24:37.621Z,7.69
2023-02-17T14:29:59.580Z,7.65
2023-02-17T14:35:23.567Z,7.62
2023-02-17T14:40:45.474Z,7.60
2023-02-17T14:46:07.625Z,7.69
2023-02-17T14:51:36.537Z,7.65
2023-02-17T14:57:11.843Z,7.68
2023-02-17T15:02:37.474Z,7.71
2023-02-17T15:08:01.062Z,7.72
2023-02-17T15:13:22.940Z,7.66
2023-02-17T15:18:44.781Z,7.69
2023-02-17T15:24:15.837Z,7.69
2023-02-17T15:29:37.700Z,7.64
2023-02-17T15:34:59.850Z,7.37
2023-02-17T15:40:24.347Z,7.63
2023-02-17T15:45:46.522Z,7.55
2023-02-17T15:51:11.628Z,7.70
2023-02-17T15:56:45.387Z,7.68
2023-02-17T16:02:21.459Z,7.75
2023-02-17T16:07:43.902Z,7.72
2023-02-17T16:13:05.872Z,7.76
2023-02-17T16:18:27.692Z,7.70
2023-02-17T16:23:49.804Z,7.76
2023-02-17T16:29:21.961Z,7.55
2023-02-17T16:34:44.005Z,7.72
2023-02-17T16:40:15.525Z,7.75
2023-02-17T16:45:37.506Z,7.70
2023-02-17T16:50:59.538Z,7.76
2023-02-17T16:56:25.268Z,7.71
2023-02-17T17:01:47.817Z,7.70
2023-02-17T17:07:14.023Z,7.75
2023-02-17T17:12:35.874Z,7.77
2023-02-17T17:17:58.991Z,7.77
2023-02-17T17:23:20.791Z,7.68
2023-02-17T17:28:42.657Z,7.74
2023-02-17T17:34:04.501Z,7.76
2023-02-17T17:39:26.432Z,7.82
2023-02-17T17:44:48.293Z,7.80
2023-02-17T17:50:16.809Z,7.79
2023-02-17T17:55:38.668Z,7.84
2023-02-17T18:01:00.728Z,7.67
2023-02-17T18:06:47.399Z,7.82
2023-02-17T18:12:16.001Z,7.87
2023-02-17T18:17:40.502Z,7.90
2023-02-17T18:23:02.554Z,7.85
2023-02-17T18:28:24.448Z,7.90
2023-02-17T18:33:46.463Z,7.89
2023-02-17T18:39:08.356Z,7.92
2023-02-17T18:44:30.193Z,7.92
2023-02-17T18:49:52.245Z,7.94
2023-02-17T18:55:14.903Z,7.99
2023-02-17T19:00:36.751Z,8.12
2023-02-17T19:05:58.703Z,8.01
2023-02-17T19:11:22.460Z,8.04
2023-02-17T19:16:44.347Z,8.13
2023-02-17T19:22:07.226Z,8.26
2023-02-17T19:27:29.388Z,8.27
2023-02-17T19:32:51.218Z,8.37
2023-02-17T19:38:13.095Z,8.47
2023-02-17T19:43:35.686Z,8.43
2023-02-17T19:48:57.495Z,8.60
2023-02-17T19:54:19.401Z,8.65
2023-02-17T19:59:41.295Z,8.77
2023-02-17T20:05:03.999Z,8.91
2023-02-17T20:10:25.835Z,9.05
2023-02-17T20:15:47.730Z,9.15
2023-02-17T20:21:11.481Z,9.24
2023-02-17T20:26:38.167Z,9.39
2023-02-17T20:32:00.663Z,9.44
2023-02-17T20:37:22.634Z,9.59
2023-02-17T20:42:44.519Z,9.50
2023-02-17T20:48:07.048Z,9.76
2023-02-17T20:53:28.863Z,9.80
2023-02-17T20:58:51.933Z,9.77
2023-02-17T21:04:13.894Z,9.80
2023-02-17T21:09:35.746Z,9.65
2023-02-17T21:14:57.604Z,9.83
2023-02-17T21:20:21.681Z,9.78
2023-02-17T21:25:45.516Z,9.84
2023-02-17T21:31:07.962Z,9.87
2023-02-17T21:36:30.131Z,9.92
2023-02-17T21:41:51.990Z,9.97
2023-02-17T21:47:14.429Z,9.98
2023-02-17T21:52:36.302Z,10.05
2023-02-17T21:57:58.703Z,9.92
2023-02-17T22:03:20.647Z,9.98
2023-02-17T22:08:42.567Z,9.91
2023-02-17T22:14:07.432Z,9.85
2023-02-17T22:19:31.369Z,9.69
2023-02-17T22:24:53.468Z,9.59
2023-02-17T22:30:15.696Z,9.54
2023-02-17T22:35:37.568Z,9.32
2023-02-17T22:41:00.009Z,9.28
2023-02-17T22:46:24.916Z,9.19
2023-02-17T22:51:46.822Z,9.06
2023-02-17T22:57:08.671Z,8.98
2023-02-17T23:02:34.265Z,8.91
2023-02-17T23:07:56.180Z,8.80
2023-02-17T23:13:18.096Z,8.73
2023-02-17T23:18:40.418Z,8.63
2023-02-17T23:24:03.090Z,8.66
2023-02-17T23:29:24.937Z,8.52
2023-02-17T23:34:46.766Z,8.44
2023-02-17T23:40:10.176Z,8.42
2023-02-17T23:45:33.031Z,8.36
2023-02-17T23:50:59.326Z,8.22
2023-02-17T23:56:27.788Z,8.40
